sensor_id;sensor_type;location;lat;lon;timestamp;pressure;altitude;pressure_sealevel;temperature;humidity
61014;BME280;46899;47.542;19.082;2022-12-29T00:00:51;101171.28;;;-1.03;100.00
61014;BME280;46899;47.542;19.082;2022-12-29T00:03:53;101185.66;;;-1.07;100.00
61014;BME280;46899;47.542;19.082;2022-12-29T00:06:56;101176.16;;;-1.12;100.00
61014;BME280;46899;47.542;19.082;2022-12-29T00:09:59;101188.09;;;-1.11;100.00
61014;BME280;46899;47.542;19.082;2022-12-29T00:13:01;101192.47;;;-1.07;100.00
61014;BME280;46899;47.542;19.082;2022-12-29T00:16:22;101193.88;;;-1.18;100.00
61014;BME280;46899;47.542;19.082;2022-12-29T00:19:25;101180.78;;;-1.32;100.00
61014;BME280;46899;47.542;19.082;2022-12-29T00:22:46;101174.69;;;-1.37;100.00
61014;BME280;46899;47.542;19.082;2022-12-29T00:26:12;101174.59;;;-1.40;100.00
61014;BME280;46899;47.542;19.082;2022-12-29T00:29:34;101182.94;;;-1.46;100.00
61014;BME280;46899;47.542;19.082;2022-12-29T00:32:55;101180.34;;;-1.47;100.00
61014;BME280;46899;47.542;19.082;2022-12-29T00:36:21;101167.47;;;-1.52;100.00
61014;BME280;46899;47.542;19.082;2022-12-29T00:39:25;101180.16;;;-1.55;100.00
61014;BME280;46899;47.542;19.082;2022-12-29T00:42:46;101177.91;;;-1.44;100.00
61014;BME280;46899;47.542;19.082;2022-12-29T00:46:08;101176.84;;;-1.51;100.00
61014;BME280;46899;47.542;19.082;2022-12-29T00:49:19;101174.94;;;-1.58;100.00
61014;BME280;46899;47.542;19.082;2022-12-29T00:52:33;101178.31;;;-1.60;100.00
61014;BME280;46899;47.542;19.082;2022-12-29T00:55:36;101179.91;;;-1.64;100.00
61014;BME280;46899;47.542;19.082;2022-12-29T00:58:39;101178.16;;;-1.65;100.00
61014;BME280;46899;47.542;19.082;2022-12-29T01:01:43;101180.66;;;-1.68;100.00
61014;BME280;46899;47.542;19.082;2022-12-29T01:04:46;101176.25;;;-1.72;100.00
61014;BME280;46899;47.542;19.082;2022-12-29T01:07:50;101177.91;;;-1.74;100.00
61014;BME280;46899;47.542;19.082;2022-12-29T01:10:59;101178.09;;;-1.68;100.00
61014;BME280;46899;47.542;19.082;2022-12-29T01:14:02;101171.22;;;-1.70;100.00
61014;BME280;46899;47.542;19.082;2022-12-29T01:17:05;101172.75;;;-1.77;100.00
61014;BME280;46899;47.542;19.082;2022-12-29T01:20:09;101176.06;;;-1.79;100.00
61014;BME280;46899;47.542;19.082;2022-12-29T01:23:14;101172.69;;;-1.78;100.00
61014;BME280;46899;47.542;19.082;2022-12-29T01:26:17;101175.44;;;-1.72;100.00
61014;BME280;46899;47.542;19.082;2022-12-29T01:29:20;101178.91;;;-1.69;100.00
61014;BME280;46899;47.542;19.082;2022-12-29T01:32:22;101176.25;;;-1.72;100.00
61014;BME280;46899;47.542;19.082;2022-12-29T01:35:25;101168.69;;;-1.70;100.00
61014;BME280;46899;47.542;19.082;2022-12-29T01:38:27;101168.69;;;-1.69;100.00
61014;BME280;46899;47.542;19.082;2022-12-29T01:41:30;101165.50;;;-1.62;100.00
61014;BME280;46899;47.542;19.082;2022-12-29T01:50:54;101164.28;;;-1.74;100.00
61014;BME280;46899;47.542;19.082;2022-12-29T01:53:56;101162.37;;;-1.83;100.00
61014;BME280;46899;47.542;19.082;2022-12-29T01:57:01;101163.91;;;-1.88;100.00
61014;BME280;46899;47.542;19.082;2022-12-29T02:00:09;101159.00;;;-1.82;100.00
61014;BME280;46899;47.542;19.082;2022-12-29T02:03:13;101157.34;;;-1.80;100.00
61014;BME280;46899;47.542;19.082;2022-12-29T02:09:22;101151.75;;;-1.67;100.00
61014;BME280;46899;47.542;19.082;2022-12-29T02:12:25;101144.63;;;-1.78;100.00
61014;BME280;46899;47.542;19.082;2022-12-29T02:19:09;101137.59;;;-1.87;100.00
61014;BME280;46899;47.542;19.082;2022-12-29T02:22:27;101142.63;;;-1.90;100.00
61014;BME280;46899;47.542;19.082;2022-12-29T02:31:58;101143.84;;;-1.76;100.00
61014;BME280;46899;47.542;19.082;2022-12-29T02:35:07;101128.66;;;-1.73;100.00
61014;BME280;46899;47.542;19.082;2022-12-29T02:51:02;101126.97;;;-1.72;100.00
61014;BME280;46899;47.542;19.082;2022-12-29T02:54:06;101122.59;;;-1.76;100.00
61014;BME280;46899;47.542;19.082;2022-12-29T02:57:33;101124.28;;;-1.77;100.00
61014;BME280;46899;47.542;19.082;2022-12-29T03:00:37;101121.47;;;-1.86;100.00
61014;BME280;46899;47.542;19.082;2022-12-29T03:03:45;101119.56;;;-1.93;100.00
61014;BME280;46899;47.542;19.082;2022-12-29T03:10:18;101120.28;;;-1.98;100.00
61014;BME280;46899;47.542;19.082;2022-12-29T03:17:03;101108.06;;;-2.10;100.00
61014;BME280;46899;47.542;19.082;2022-12-29T03:20:13;101119.31;;;-2.02;100.00
61014;BME280;46899;47.542;19.082;2022-12-29T03:23:17;101115.09;;;-2.01;100.00
61014;BME280;46899;47.542;19.082;2022-12-29T03:26:21;101115.13;;;-2.00;100.00
61014;BME280;46899;47.542;19.082;2022-12-29T03:29:24;101103.88;;;-2.08;100.00
61014;BME280;46899;47.542;19.082;2022-12-29T03:32:38;101109.66;;;-2.14;100.00
61014;BME280;46899;47.542;19.082;2022-12-29T03:35:42;101095.88;;;-2.20;100.00
61014;BME280;46899;47.542;19.082;2022-12-29T03:39:03;101090.91;;;-2.16;100.00
61014;BME280;46899;47.542;19.082;2022-12-29T03:42:11;101090.00;;;-2.18;100.00
61014;BME280;46899;47.542;19.082;2022-12-29T03:45:16;101090.47;;;-2.01;100.00
61014;BME280;46899;47.542;19.082;2022-12-29T03:48:19;101096.34;;;-2.03;100.00
61014;BME280;46899;47.542;19.082;2022-12-29T03:51:22;101092.28;;;-1.97;100.00
61014;BME280;46899;47.542;19.082;2022-12-29T03:54:24;101085.38;;;-2.01;100.00
61014;BME280;46899;47.542;19.082;2022-12-29T03:57:27;101092.97;;;-2.02;100.00
61014;BME280;46899;47.542;19.082;2022-12-29T04:00:30;101085.28;;;-2.04;100.00
61014;BME280;46899;47.542;19.082;2022-12-29T04:03:33;101094.75;;;-2.00;100.00
61014;BME280;46899;47.542;19.082;2022-12-29T04:06:36;101098.94;;;-2.02;100.00
61014;BME280;46899;47.542;19.082;2022-12-29T04:09:39;101103.88;;;-2.08;100.00
61014;BME280;46899;47.542;19.082;2022-12-29T04:12:43;101102.13;;;-2.09;100.00
61014;BME280;46899;47.542;19.082;2022-12-29T04:15:48;101097.78;;;-2.13;100.00
61014;BME280;46899;47.542;19.082;2022-12-29T04:18:52;101090.13;;;-2.13;100.00
61014;BME280;46899;47.542;19.082;2022-12-29T04:21:55;101099.59;;;-2.09;100.00
61014;BME280;46899;47.542;19.082;2022-12-29T04:24:58;101093.91;;;-2.00;100.00
61014;BME280;46899;47.542;19.082;2022-12-29T04:28:01;101089.94;;;-1.89;100.00
61014;BME280;46899;47.542;19.082;2022-12-29T04:31:03;101099.97;;;-1.95;100.00
61014;BME280;46899;47.542;19.082;2022-12-29T04:34:07;101095.56;;;-2.01;100.00
61014;BME280;46899;47.542;19.082;2022-12-29T04:37:09;101097.09;;;-2.08;100.00
61014;BME280;46899;47.542;19.082;2022-12-29T04:40:12;101097.78;;;-2.13;100.00
61014;BME280;46899;47.542;19.082;2022-12-29T04:43:16;101092.66;;;-2.15;100.00
61014;BME280;46899;47.542;19.082;2022-12-29T04:46:22;101096.09;;;-2.13;100.00
61014;BME280;46899;47.542;19.082;2022-12-29T04:49:25;101100.50;;;-2.07;100.00
61014;BME280;46899;47.542;19.082;2022-12-29T04:52:28;101085.19;;;-2.07;100.00
61014;BME280;46899;47.542;19.082;2022-12-29T04:55:30;101088.84;;;-1.99;100.00
61014;BME280;46899;47.542;19.082;2022-12-29T04:58:33;101092.47;;;-1.91;100.00
61014;BME280;46899;47.542;19.082;2022-12-29T05:01:35;101090.97;;;-1.83;100.00
61014;BME280;46899;47.542;19.082;2022-12-29T05:04:39;101102.97;;;-1.79;100.00
61014;BME280;46899;47.542;19.082;2022-12-29T05:07:41;101104.69;;;-1.78;100.00
61014;BME280;46899;47.542;19.082;2022-12-29T05:10:45;101107.47;;;-1.70;100.00
61014;BME280;46899;47.542;19.082;2022-12-29T05:13:47;101101.50;;;-1.71;100.00
61014;BME280;46899;47.542;19.082;2022-12-29T05:16:50;101101.59;;;-1.68;100.00
61014;BME280;46899;47.542;19.082;2022-12-29T05:19:53;101094.81;;;-1.67;100.00
61014;BME280;46899;47.542;19.082;2022-12-29T05:22:56;101094.19;;;-1.57;100.00
61014;BME280;46899;47.542;19.082;2022-12-29T05:25:59;101096.06;;;-1.50;100.00
61014;BME280;46899;47.542;19.082;2022-12-29T05:29:02;101100.19;;;-1.55;100.00
61014;BME280;46899;47.542;19.082;2022-12-29T05:32:07;101095.09;;;-1.55;100.00
61014;BME280;46899;47.542;19.082;2022-12-29T05:35:09;101094.16;;;-1.59;100.00
61014;BME280;46899;47.542;19.082;2022-12-29T05:38:12;101095.81;;;-1.61;100.00
61014;BME280;46899;47.542;19.082;2022-12-29T05:41:16;101100.59;;;-1.73;100.00
61014;BME280;46899;47.542;19.082;2022-12-29T05:44:20;101091.94;;;-1.78;100.00
61014;BME280;46899;47.542;19.082;2022-12-29T05:47:27;101082.66;;;-1.76;100.00
61014;BME280;46899;47.542;19.082;2022-12-29T05:50:31;101080.09;;;-1.76;100.00
61014;BME280;46899;47.542;19.082;2022-12-29T05:53:35;101084.16;;;-1.84;100.00
61014;BME280;46899;47.542;19.082;2022-12-29T05:56:37;101085.72;;;-1.89;100.00
61014;BME280;46899;47.542;19.082;2022-12-29T05:59:40;101081.28;;;-1.96;100.00
61014;BME280;46899;47.542;19.082;2022-12-29T06:02:43;101080.66;;;-1.86;100.00
61014;BME280;46899;47.542;19.082;2022-12-29T06:05:46;101076.22;;;-1.94;100.00
61014;BME280;46899;47.542;19.082;2022-12-29T06:08:49;101073.75;;;-1.91;100.00
61014;BME280;46899;47.542;19.082;2022-12-29T06:11:55;101077.09;;;-1.92;100.00
61014;BME280;46899;47.542;19.082;2022-12-29T06:14:57;101077.47;;;-1.79;100.00
61014;BME280;46899;47.542;19.082;2022-12-29T06:18:01;101080.66;;;-1.86;100.00
61014;BME280;46899;47.542;19.082;2022-12-29T06:21:03;101078.88;;;-1.90;100.00
61014;BME280;46899;47.542;19.082;2022-12-29T06:24:06;101077.06;;;-1.94;100.00
61014;BME280;46899;47.542;19.082;2022-12-29T06:27:09;101077.16;;;-1.91;100.00
61014;BME280;46899;47.542;19.082;2022-12-29T06:30:12;101074.00;;;-1.81;100.00
61014;BME280;46899;47.542;19.082;2022-12-29T06:33:15;101074.69;;;-1.88;100.00
61014;BME280;46899;47.542;19.082;2022-12-29T06:36:19;101087.44;;;-1.88;100.00
61014;BME280;46899;47.542;19.082;2022-12-29T06:39:21;101085.63;;;-1.92;100.00
61014;BME280;46899;47.542;19.082;2022-12-29T06:42:24;101084.81;;;-1.91;100.00
61014;BME280;46899;47.542;19.082;2022-12-29T06:45:28;101084.22;;;-1.81;100.00
61014;BME280;46899;47.542;19.082;2022-12-29T06:48:31;101079.19;;;-1.78;100.00
61014;BME280;46899;47.542;19.082;2022-12-29T06:51:33;101090.31;;;-1.74;100.00
61014;BME280;46899;47.542;19.082;2022-12-29T06:54:36;101087.94;;;-1.70;100.00
61014;BME280;46899;47.542;19.082;2022-12-29T06:57:39;101089.62;;;-1.69;100.00
61014;BME280;46899;47.542;19.082;2022-12-29T07:00:41;101099.97;;;-1.64;100.00
61014;BME280;46899;47.542;19.082;2022-12-29T07:03:44;101098.37;;;-1.61;100.00
61014;BME280;46899;47.542;19.082;2022-12-29T07:06:46;101092.72;;;-1.49;100.00
61014;BME280;46899;47.542;19.082;2022-12-29T07:09:49;101098.13;;;-1.37;100.00
61014;BME280;46899;47.542;19.082;2022-12-29T07:12:52;101102.97;;;-1.13;100.00
61014;BME280;46899;47.542;19.082;2022-12-29T07:15:54;101100.06;;;-0.91;100.00
61014;BME280;46899;47.542;19.082;2022-12-29T07:18:57;101104.56;;;-0.81;100.00
61014;BME280;46899;47.542;19.082;2022-12-29T07:22:01;101096.31;;;-0.70;100.00
61014;BME280;46899;47.542;19.082;2022-12-29T07:25:04;101110.09;;;-0.63;100.00
61014;BME280;46899;47.542;19.082;2022-12-29T07:28:06;101098.41;;;-0.52;100.00
61014;BME280;46899;47.542;19.082;2022-12-29T07:31:19;101097.84;;;-0.37;100.00
61014;BME280;46899;47.542;19.082;2022-12-29T07:34:22;101101.03;;;-0.07;100.00
61014;BME280;46899;47.542;19.082;2022-12-29T07:37:25;101103.16;;;0.14;100.00
61014;BME280;46899;47.542;19.082;2022-12-29T07:40:27;101100.66;;;0.17;100.00
61014;BME280;46899;47.542;19.082;2022-12-29T07:43:30;101106.94;;;0.34;100.00
61014;BME280;46899;47.542;19.082;2022-12-29T07:46:33;101108.78;;;0.39;100.00
61014;BME280;46899;47.542;19.082;2022-12-29T07:49:55;101108.06;;;0.48;100.00
61014;BME280;46899;47.542;19.082;2022-12-29T07:52:58;101113.97;;;0.45;100.00
61014;BME280;46899;47.542;19.082;2022-12-29T07:56:00;101120.03;;;0.49;100.00
61014;BME280;46899;47.542;19.082;2022-12-29T07:59:03;101123.03;;;0.75;100.00
61014;BME280;46899;47.542;19.082;2022-12-29T08:02:08;101118.00;;;0.81;100.00
61014;BME280;46899;47.542;19.082;2022-12-29T08:05:12;101126.81;;;0.96;100.00
61014;BME280;46899;47.542;19.082;2022-12-29T08:08:21;101117.91;;;1.27;100.00
61014;BME280;46899;47.542;19.082;2022-12-29T08:11:30;101113.16;;;1.53;100.00
61014;BME280;46899;47.542;19.082;2022-12-29T08:14:39;101111.25;;;1.39;100.00
61014;BME280;46899;47.542;19.082;2022-12-29T08:17:51;101112.53;;;1.10;100.00
61014;BME280;46899;47.542;19.082;2022-12-29T08:20:55;101107.34;;;1.07;100.00
61014;BME280;46899;47.542;19.082;2022-12-29T08:24:05;101113.34;;;1.08;100.00
61014;BME280;46899;47.542;19.082;2022-12-29T08:27:16;101107.16;;;0.95;100.00
61014;BME280;46899;47.542;19.082;2022-12-29T08:30:22;101100.50;;;1.06;100.00
61014;BME280;46899;47.542;19.082;2022-12-29T08:33:25;101100.47;;;1.05;100.00
61014;BME280;46899;47.542;19.082;2022-12-29T08:36:29;101093.66;;;1.05;100.00
61014;BME280;46899;47.542;19.082;2022-12-29T08:39:32;101097.78;;;0.97;100.00
61014;BME280;46899;47.542;19.082;2022-12-29T08:42:35;101101.03;;;0.86;100.00
61014;BME280;46899;47.542;19.082;2022-12-29T08:45:37;101096.56;;;0.74;100.00
61014;BME280;46899;47.542;19.082;2022-12-29T08:48:40;101090.56;;;0.74;100.00
61014;BME280;46899;47.542;19.082;2022-12-29T08:51:42;101091.34;;;0.68;100.00
61014;BME280;46899;47.542;19.082;2022-12-29T08:54:45;101087.06;;;0.68;100.00
61014;BME280;46899;47.542;19.082;2022-12-29T08:57:47;101085.56;;;0.80;100.00
61014;BME280;46899;47.542;19.082;2022-12-29T09:00:51;101097.72;;;0.93;100.00
61014;BME280;46899;47.542;19.082;2022-12-29T09:03:55;101080.97;;;1.13;100.00
61014;BME280;46899;47.542;19.082;2022-12-29T09:07:18;101075.06;;;1.18;100.00
61014;BME280;46899;47.542;19.082;2022-12-29T09:10:21;101094.34;;;1.51;100.00
61014;BME280;46899;47.542;19.082;2022-12-29T09:13:24;101093.34;;;1.43;100.00
61014;BME280;46899;47.542;19.082;2022-12-29T09:16:29;101077.66;;;1.21;100.00
61014;BME280;46899;47.542;19.082;2022-12-29T09:19:34;101080.47;;;1.36;100.00
61014;BME280;46899;47.542;19.082;2022-12-29T09:22:37;101073.78;;;1.49;100.00
61014;BME280;46899;47.542;19.082;2022-12-29T09:25:48;101066.91;;;1.47;100.00
61014;BME280;46899;47.542;19.082;2022-12-29T09:28:55;101064.44;;;1.56;100.00
61014;BME280;46899;47.542;19.082;2022-12-29T09:32:02;101059.09;;;1.37;100.00
61014;BME280;46899;47.542;19.082;2022-12-29T09:35:25;101059.78;;;1.26;100.00
61014;BME280;46899;47.542;19.082;2022-12-29T09:38:28;101048.50;;;1.12;100.00
61014;BME280;46899;47.542;19.082;2022-12-29T09:41:34;101037.28;;;1.05;100.00
61014;BME280;46899;47.542;19.082;2022-12-29T09:47:44;101037.31;;;1.07;100.00
61014;BME280;46899;47.542;19.082;2022-12-29T09:50:49;101041.63;;;1.09;100.00
61014;BME280;46899;47.542;19.082;2022-12-29T09:53:56;101044.34;;;1.21;100.00
61014;BME280;46899;47.542;19.082;2022-12-29T09:57:01;101049.00;;;1.48;100.00
61014;BME280;46899;47.542;19.082;2022-12-29T10:00:05;101042.94;;;1.43;100.00
61014;BME280;46899;47.542;19.082;2022-12-29T10:03:17;101036.38;;;1.65;100.00
61014;BME280;46899;47.542;19.082;2022-12-29T10:23:31;101013.25;;;1.62;100.00
61014;BME280;46899;47.542;19.082;2022-12-29T10:26:41;101015.81;;;1.62;100.00
61014;BME280;46899;47.542;19.082;2022-12-29T10:29:54;101015.09;;;1.73;100.00
61014;BME280;46899;47.542;19.082;2022-12-29T10:32:58;101017.91;;;1.93;100.00
61014;BME280;46899;47.542;19.082;2022-12-29T10:36:13;101006.03;;;2.02;100.00
61014;BME280;46899;47.542;19.082;2022-12-29T10:39:29;101001.84;;;2.15;100.00
61014;BME280;46899;47.542;19.082;2022-12-29T10:42:37;101003.59;;;2.19;100.00
61014;BME280;46899;47.542;19.082;2022-12-29T10:45:43;100990.75;;;2.18;100.00
61014;BME280;46899;47.542;19.082;2022-12-29T10:48:47;100994.38;;;2.39;100.00
61014;BME280;46899;47.542;19.082;2022-12-29T10:51:50;100993.56;;;2.46;100.00
61014;BME280;46899;47.542;19.082;2022-12-29T10:54:58;100986.63;;;2.36;100.00
61014;BME280;46899;47.542;19.082;2022-12-29T10:58:04;100984.12;;;2.45;100.00
61014;BME280;46899;47.542;19.082;2022-12-29T11:01:07;100980.88;;;2.61;100.00
61014;BME280;46899;47.542;19.082;2022-12-29T11:07:34;100964.69;;;2.79;100.00
61014;BME280;46899;47.542;19.082;2022-12-29T11:10:38;100974.12;;;2.82;100.00
61014;BME280;46899;47.542;19.082;2022-12-29T11:13:50;100971.63;;;2.91;100.00
61014;BME280;46899;47.542;19.082;2022-12-29T11:17:02;100983.66;;;2.99;100.00
61014;BME280;46899;47.542;19.082;2022-12-29T11:20:19;100984.59;;;3.13;100.00
61014;BME280;46899;47.542;19.082;2022-12-29T11:23:24;100973.47;;;3.16;100.00
61014;BME280;46899;47.542;19.082;2022-12-29T11:26:27;100970.91;;;3.20;100.00
61014;BME280;46899;47.542;19.082;2022-12-29T11:29:39;100965.75;;;3.13;100.00
61014;BME280;46899;47.542;19.082;2022-12-29T11:32:49;100968.25;;;3.01;100.00
61014;BME280;46899;47.542;19.082;2022-12-29T11:35:53;100959.69;;;2.99;100.00
61014;BME280;46899;47.542;19.082;2022-12-29T11:38:58;100951.25;;;3.22;100.00
61014;BME280;46899;47.542;19.082;2022-12-29T11:42:02;100944.25;;;3.02;100.00
61014;BME280;46899;47.542;19.082;2022-12-29T11:45:15;100937.50;;;3.17;100.00
61014;BME280;46899;47.542;19.082;2022-12-29T11:48:19;100934.06;;;3.21;100.00
61014;BME280;46899;47.542;19.082;2022-12-29T11:51:23;100935.00;;;3.38;100.00
61014;BME280;46899;47.542;19.082;2022-12-29T11:54:31;100941.00;;;3.36;100.00
61014;BME280;46899;47.542;19.082;2022-12-29T11:57:36;100935.00;;;3.44;100.00
61014;BME280;46899;47.542;19.082;2022-12-29T12:00:41;100949.59;;;3.41;100.00
61014;BME280;46899;47.542;19.082;2022-12-29T12:03:48;100950.41;;;3.37;100.00
61014;BME280;46899;47.542;19.082;2022-12-29T12:10:02;100943.53;;;3.33;100.00
61014;BME280;46899;47.542;19.082;2022-12-29T12:16:18;100935.03;;;3.54;100.00
61014;BME280;46899;47.542;19.082;2022-12-29T12:25:54;100915.34;;;3.63;100.00
61014;BME280;46899;47.542;19.082;2022-12-29T12:28:59;100902.47;;;3.54;100.00
61014;BME280;46899;47.542;19.082;2022-12-29T12:32:48;100893.88;;;3.52;100.00
61014;BME280;46899;47.542;19.082;2022-12-29T12:35:36;100885.28;;;3.42;100.00
61014;BME280;46899;47.542;19.082;2022-12-29T12:45:07;100872.38;;;3.21;100.00
61014;BME280;46899;47.542;19.082;2022-12-29T12:51:48;100871.50;;;3.21;100.00
61014;BME280;46899;47.542;19.082;2022-12-29T12:58:43;100882.69;;;3.29;100.00
61014;BME280;46899;47.542;19.082;2022-12-29T13:05:22;100867.28;;;3.42;100.00
61014;BME280;46899;47.542;19.082;2022-12-29T13:08:45;100878.41;;;3.40;100.00
61014;BME280;46899;47.542;19.082;2022-12-29T13:12:08;100887.00;;;3.51;100.00
61014;BME280;46899;47.542;19.082;2022-12-29T13:15:37;100887.87;;;3.41;100.00
61014;BME280;46899;47.542;19.082;2022-12-29T13:18:46;100884.41;;;3.42;100.00
61014;BME280;46899;47.542;19.082;2022-12-29T13:28:25;100889.50;;;3.25;100.00
61014;BME280;46899;47.542;19.082;2022-12-29T13:41:08;100898.09;;;3.21;100.00
61014;BME280;46899;47.542;19.082;2022-12-29T13:44:14;100889.50;;;3.19;100.00
61014;BME280;46899;47.542;19.082;2022-12-29T13:50:36;100886.06;;;3.14;100.00
61014;BME280;46899;47.542;19.082;2022-12-29T13:56:50;100896.25;;;2.92;100.00
61014;BME280;46899;47.542;19.082;2022-12-29T13:59:56;100905.63;;;2.84;100.00
61014;BME280;46899;47.542;19.082;2022-12-29T14:03:10;100904.75;;;2.82;100.00
61014;BME280;46899;47.542;19.082;2022-12-29T14:10:04;100914.19;;;2.84;100.00
61014;BME280;46899;47.542;19.082;2022-12-29T14:12:47;100921.13;;;2.99;100.00
61014;BME280;46899;47.542;19.082;2022-12-29T14:15:54;100913.28;;;2.74;100.00
61014;BME280;46899;47.542;19.082;2022-12-29T14:19:04;100909.03;;;2.81;100.00
61014;BME280;46899;47.542;19.082;2022-12-29T14:22:07;100909.84;;;2.68;100.00
61014;BME280;46899;47.542;19.082;2022-12-29T14:25:55;100904.53;;;2.44;100.00
61014;BME280;46899;47.542;19.082;2022-12-29T14:28:40;100894.19;;;2.30;100.00
61014;BME280;46899;47.542;19.082;2022-12-29T14:31:43;100890.72;;;2.25;100.00
61014;BME280;46899;47.542;19.082;2022-12-29T14:34:46;100894.06;;;2.14;100.00
61014;BME280;46899;47.542;19.082;2022-12-29T14:38:04;100899.94;;;2.02;100.00
61014;BME280;46899;47.542;19.082;2022-12-29T14:41:18;100908.37;;;1.87;100.00
61014;BME280;46899;47.542;19.082;2022-12-29T14:44:26;100909.25;;;1.88;100.00
61014;BME280;46899;47.542;19.082;2022-12-29T14:47:32;100911.81;;;1.88;100.00
61014;BME280;46899;47.542;19.082;2022-12-29T14:50:40;100901.63;;;1.97;100.00
61014;BME280;46899;47.542;19.082;2022-12-29T14:53:44;100912.66;;;1.90;100.00
61014;BME280;46899;47.542;19.082;2022-12-29T14:56:47;100920.28;;;1.81;100.00
61014;BME280;46899;47.542;19.082;2022-12-29T14:59:52;100918.50;;;1.77;100.00
61014;BME280;46899;47.542;19.082;2022-12-29T15:03:05;100912.44;;;1.67;100.00
61014;BME280;46899;47.542;19.082;2022-12-29T15:06:09;100909.81;;;1.60;100.00
61014;BME280;46899;47.542;19.082;2022-12-29T15:09:20;100909.78;;;1.58;100.00
61014;BME280;46899;47.542;19.082;2022-12-29T15:15:28;100929.38;;;1.52;100.00
61014;BME280;46899;47.542;19.082;2022-12-29T15:18:32;100942.91;;;1.38;100.00
61014;BME280;46899;47.542;19.082;2022-12-29T15:21:35;100942.16;;;1.46;100.00
61014;BME280;46899;47.542;19.082;2022-12-29T15:24:41;100937.59;;;1.25;100.00
61014;BME280;46899;47.542;19.082;2022-12-29T15:27:54;100931.53;;;1.15;100.00
61014;BME280;46899;47.542;19.082;2022-12-29T15:31:02;100938.16;;;1.00;100.00
61014;BME280;46899;47.542;19.082;2022-12-29T15:34:11;100943.00;;;0.80;100.00
61014;BME280;46899;47.542;19.082;2022-12-29T15:37:16;100945.66;;;0.85;100.00
61014;BME280;46899;47.542;19.082;2022-12-29T15:40:30;100944.59;;;0.72;100.00
61014;BME280;46899;47.542;19.082;2022-12-29T15:46:46;100941.19;;;0.73;100.00
61014;BME280;46899;47.542;19.082;2022-12-29T15:50:19;100944.63;;;0.74;100.00
61014;BME280;46899;47.542;19.082;2022-12-29T15:53:18;100946.25;;;0.67;100.00
61014;BME280;46899;47.542;19.082;2022-12-29T15:56:21;100937.63;;;0.62;100.00
61014;BME280;46899;47.542;19.082;2022-12-29T15:59:45;100944.28;;;0.49;100.00
61014;BME280;46899;47.542;19.082;2022-12-29T16:02:50;100948.41;;;0.40;100.00
61014;BME280;46899;47.542;19.082;2022-12-29T16:09:43;100938.56;;;0.12;100.00
61014;BME280;46899;47.542;19.082;2022-12-29T16:12:54;100944.34;;;0.02;100.00
61014;BME280;46899;47.542;19.082;2022-12-29T16:15:59;100946.72;;;-0.09;100.00
61014;BME280;46899;47.542;19.082;2022-12-29T16:19:37;100944.06;;;-0.14;100.00
61014;BME280;46899;47.542;19.082;2022-12-29T16:22:42;100937.34;;;-0.09;100.00
61014;BME280;46899;47.542;19.082;2022-12-29T16:25:51;100940.78;;;-0.07;100.00
61014;BME280;46899;47.542;19.082;2022-12-29T16:29:04;100930.41;;;-0.17;100.00
61014;BME280;46899;47.542;19.082;2022-12-29T16:32:28;100937.84;;;-0.28;100.00
61014;BME280;46899;47.542;19.082;2022-12-29T16:38:45;100943.03;;;-0.25;100.00
61014;BME280;46899;47.542;19.082;2022-12-29T16:41:49;100958.53;;;-0.17;100.00
61014;BME280;46899;47.542;19.082;2022-12-29T16:44:56;100953.31;;;-0.22;100.00
61014;BME280;46899;47.542;19.082;2022-12-29T16:48:10;100952.22;;;-0.36;100.00
61014;BME280;46899;47.542;19.082;2022-12-29T16:51:33;100958.78;;;-0.47;100.00
61014;BME280;46899;47.542;19.082;2022-12-29T16:54:48;100969.78;;;-0.52;100.00
61014;BME280;46899;47.542;19.082;2022-12-29T16:57:57;100965.09;;;-0.30;100.00
61014;BME280;46899;47.542;19.082;2022-12-29T17:01:00;100971.81;;;-0.35;100.00
61014;BME280;46899;47.542;19.082;2022-12-29T17:04:06;100967.41;;;-0.42;100.00
61014;BME280;46899;47.542;19.082;2022-12-29T17:07:27;100963.09;;;-0.46;100.00
61014;BME280;46899;47.542;19.082;2022-12-29T17:10:31;100968.19;;;-0.46;100.00
61014;BME280;46899;47.542;19.082;2022-12-29T17:13:53;100967.38;;;-0.45;100.00
61014;BME280;46899;47.542;19.082;2022-12-29T17:16:56;100975.22;;;-0.36;100.00
61014;BME280;46899;47.542;19.082;2022-12-29T17:20:03;100975.31;;;-0.30;100.00
61014;BME280;46899;47.542;19.082;2022-12-29T17:23:13;100974.12;;;-0.47;100.00
61014;BME280;46899;47.542;19.082;2022-12-29T17:26:23;100966.47;;;-0.47;100.00
61014;BME280;46899;47.542;19.082;2022-12-29T17:32:28;100965.56;;;-0.50;100.00
61014;BME280;46899;47.542;19.082;2022-12-29T17:35:32;100963.03;;;-0.49;100.00
61014;BME280;46899;47.542;19.082;2022-12-29T17:38:34;100954.38;;;-0.57;100.00
61014;BME280;46899;47.542;19.082;2022-12-29T17:41:41;100958.47;;;-0.63;100.00
61014;BME280;46899;47.542;19.082;2022-12-29T17:44:43;100963.44;;;-0.71;100.00
61014;BME280;46899;47.542;19.082;2022-12-29T17:47:46;100964.28;;;-0.72;100.00
61014;BME280;46899;47.542;19.082;2022-12-29T17:50:50;100954.06;;;-0.71;100.00
61014;BME280;46899;47.542;19.082;2022-12-29T17:53:53;100956.44;;;-0.80;100.00
61014;BME280;46899;47.542;19.082;2022-12-29T17:56:55;100962.56;;;-0.73;100.00
61014;BME280;46899;47.542;19.082;2022-12-29T18:00:02;100958.19;;;-0.77;100.00
61014;BME280;46899;47.542;19.082;2022-12-29T18:03:14;100956.25;;;-0.89;100.00
61014;BME280;46899;47.542;19.082;2022-12-29T18:06:18;100956.97;;;-0.94;100.00
61014;BME280;46899;47.542;19.082;2022-12-29T18:09:20;100950.28;;;-0.89;100.00
61014;BME280;46899;47.542;19.082;2022-12-29T18:15:30;100960.31;;;-0.98;100.00